sensor_id;sensor_type;location;lat;lon;timestamp;P1;durP1;ratioP1;P2;durP2;ratioP2
48285;SDS011;34102;47.716;10.296;2023-08-31T02:46:30;1.90;;;1.63;;
48285;SDS011;34102;47.716;10.296;2023-08-31T02:48:57;2.88;;;1.50;;
48285;SDS011;34102;47.716;10.296;2023-08-31T02:51:23;2.78;;;1.80;;
48285;SDS011;34102;47.716;10.296;2023-08-31T02:53:48;3.20;;;2.08;;
48285;SDS011;34102;47.716;10.296;2023-08-31T02:56:14;2.72;;;1.73;;
48285;SDS011;34102;47.716;10.296;2023-08-31T02:58:41;5.43;;;2.15;;
48285;SDS011;34102;47.716;10.296;2023-08-31T03:01:09;2.10;;;1.80;;
48285;SDS011;34102;47.716;10.296;2023-08-31T03:03:44;3.10;;;2.22;;
48285;SDS011;34102;47.716;10.296;2023-08-31T03:06:11;3.08;;;2.40;;
48285;SDS011;34102;47.716;10.296;2023-08-31T03:08:36;3.65;;;2.38;;
48285;SDS011;34102;47.716;10.296;2023-08-31T03:11:03;2.92;;;2.30;;
48285;SDS011;34102;47.716;10.296;2023-08-31T03:13:29;3.35;;;2.67;;
48285;SDS011;34102;47.716;10.296;2023-08-31T03:15:54;2.63;;;2.25;;
48285;SDS011;34102;47.716;10.296;2023-08-31T03:18:24;3.50;;;2.40;;
48285;SDS011;34102;47.716;10.296;2023-08-31T03:20:50;3.63;;;3.22;;
48285;SDS011;34102;47.716;10.296;2023-08-31T03:23:16;7.30;;;3.03;;
48285;SDS011;34102;47.716;10.296;2023-08-31T03:25:43;3.75;;;2.63;;
48285;SDS011;34102;47.716;10.296;2023-08-31T03:28:09;4.43;;;3.10;;
48285;SDS011;34102;47.716;10.296;2023-08-31T03:30:35;4.40;;;2.53;;
48285;SDS011;34102;47.716;10.296;2023-08-31T03:33:01;2.88;;;2.28;;
48285;SDS011;34102;47.716;10.296;2023-08-31T03:35:27;3.78;;;2.45;;
48285;SDS011;34102;47.716;10.296;2023-08-31T03:37:54;4.35;;;2.80;;
48285;SDS011;34102;47.716;10.296;2023-08-31T03:40:21;3.70;;;2.55;;
48285;SDS011;34102;47.716;10.296;2023-08-31T03:42:49;2.97;;;2.67;;
48285;SDS011;34102;47.716;10.296;2023-08-31T03:45:16;5.32;;;3.10;;
48285;SDS011;34102;47.716;10.296;2023-08-31T03:47:43;3.50;;;2.65;;
48285;SDS011;34102;47.716;10.296;2023-08-31T03:50:09;6.50;;;3.55;;
48285;SDS011;34102;47.716;10.296;2023-08-31T03:52:34;4.93;;;3.28;;
48285;SDS011;34102;47.716;10.296;2023-08-31T03:55:00;3.40;;;2.80;;
48285;SDS011;34102;47.716;10.296;2023-08-31T03:57:26;5.20;;;2.95;;
48285;SDS011;34102;47.716;10.296;2023-08-31T03:59:57;3.42;;;2.80;;
48285;SDS011;34102;47.716;10.296;2023-08-31T04:02:23;5.75;;;3.00;;
48285;SDS011;34102;47.716;10.296;2023-08-31T04:04:49;3.33;;;2.95;;
48285;SDS011;34102;47.716;10.296;2023-08-31T04:07:15;4.82;;;3.47;;
48285;SDS011;34102;47.716;10.296;2023-08-31T04:09:41;4.50;;;3.00;;
48285;SDS011;34102;47.716;10.296;2023-08-31T04:12:08;4.32;;;3.20;;
48285;SDS011;34102;47.716;10.296;2023-08-31T04:14:34;5.28;;;2.97;;
48285;SDS011;34102;47.716;10.296;2023-08-31T04:17:00;4.65;;;3.20;;
48285;SDS011;34102;47.716;10.296;2023-08-31T04:19:25;5.65;;;3.00;;
48285;SDS011;34102;47.716;10.296;2023-08-31T04:21:51;7.15;;;3.03;;
48285;SDS011;34102;47.716;10.296;2023-08-31T04:24:17;5.22;;;3.95;;
48285;SDS011;34102;47.716;10.296;2023-08-31T04:26:43;4.75;;;3.75;;
48285;SDS011;34102;47.716;10.296;2023-08-31T04:29:09;4.03;;;3.63;;
48285;SDS011;34102;47.716;10.296;2023-08-31T04:31:35;4.50;;;3.60;;
48285;SDS011;34102;47.716;10.296;2023-08-31T04:34:01;4.18;;;3.50;;
48285;SDS011;34102;47.716;10.296;2023-08-31T04:36:26;3.90;;;3.47;;
48285;SDS011;34102;47.716;10.296;2023-08-31T04:38:51;3.80;;;3.10;;
48285;SDS011;34102;47.716;10.296;2023-08-31T04:41:17;6.15;;;2.97;;
48285;SDS011;34102;47.716;10.296;2023-08-31T04:43:42;5.25;;;3.10;;
48285;SDS011;34102;47.716;10.296;2023-08-31T04:46:08;5.05;;;2.95;;
48285;SDS011;34102;47.716;10.296;2023-08-31T04:48:33;3.03;;;2.65;;
48285;SDS011;34102;47.716;10.296;2023-08-31T04:50:59;4.85;;;2.75;;
48285;SDS011;34102;47.716;10.296;2023-08-31T04:53:25;3.30;;;3.00;;
48285;SDS011;34102;47.716;10.296;2023-08-31T04:55:50;3.92;;;2.97;;
48285;SDS011;34102;47.716;10.296;2023-08-31T04:58:16;3.63;;;3.28;;
48285;SDS011;34102;47.716;10.296;2023-08-31T05:00:41;17.33;;;4.38;;
48285;SDS011;34102;47.716;10.296;2023-08-31T05:03:07;3.70;;;2.33;;
48285;SDS011;34102;47.716;10.296;2023-08-31T05:05:33;2.03;;;1.80;;
48285;SDS011;34102;47.716;10.296;2023-08-31T05:07:59;3.92;;;1.90;;
48285;SDS011;34102;47.716;10.296;2023-08-31T05:10:25;4.93;;;2.30;;
48285;SDS011;34102;47.716;10.296;2023-08-31T05:12:50;4.20;;;2.40;;
48285;SDS011;34102;47.716;10.296;2023-08-31T05:15:16;5.00;;;2.55;;
48285;SDS011;34102;47.716;10.296;2023-08-31T05:17:41;3.83;;;2.05;;
48285;SDS011;34102;47.716;10.296;2023-08-31T05:20:07;5.78;;;2.47;;
48285;SDS011;34102;47.716;10.296;2023-08-31T05:22:36;6.63;;;2.70;;
48285;SDS011;34102;47.716;10.296;2023-08-31T05:25:03;4.95;;;2.35;;
48285;SDS011;34102;47.716;10.296;2023-08-31T05:27:29;3.80;;;2.53;;
48285;SDS011;34102;47.716;10.296;2023-08-31T05:29:55;2.67;;;1.90;;
48285;SDS011;34102;47.716;10.296;2023-08-31T08:00:54;1.95;;;0.82;;
48285;SDS011;34102;47.716;10.296;2023-08-31T08:03:22;1.33;;;0.70;;
48285;SDS011;34102;47.716;10.296;2023-08-31T08:05:53;2.75;;;0.90;;
48285;SDS011;34102;47.716;10.296;2023-08-31T08:08:32;1.33;;;0.70;;
48285;SDS011;34102;47.716;10.296;2023-08-31T08:10:57;1.85;;;1.10;;
48285;SDS011;34102;47.716;10.296;2023-08-31T08:13:25;2.60;;;0.90;;
48285;SDS011;34102;47.716;10.296;2023-08-31T08:15:51;2.38;;;1.20;;
48285;SDS011;34102;47.716;10.296;2023-08-31T08:18:20;2.00;;;0.85;;
48285;SDS011;34102;47.716;10.296;2023-08-31T08:20:50;2.72;;;1.40;;
48285;SDS011;34102;47.716;10.296;2023-08-31T08:23:17;2.10;;;1.02;;
48285;SDS011;34102;47.716;10.296;2023-08-31T08:25:43;2.45;;;0.85;;
48285;SDS011;34102;47.716;10.296;2023-08-31T08:28:13;1.80;;;0.73;;
48285;SDS011;34102;47.716;10.296;2023-08-31T08:30:39;1.48;;;1.05;;
48285;SDS011;34102;47.716;10.296;2023-08-31T08:33:04;1.50;;;0.90;;
48285;SDS011;34102;47.716;10.296;2023-08-31T08:35:33;2.15;;;0.80;;
48285;SDS011;34102;47.716;10.296;2023-08-31T08:38:01;1.83;;;0.73;;
48285;SDS011;34102;47.716;10.296;2023-08-31T08:40:28;2.50;;;1.35;;
48285;SDS011;34102;47.716;10.296;2023-08-31T08:42:55;2.30;;;1.00;;
48285;SDS011;34102;47.716;10.296;2023-08-31T08:45:23;3.35;;;1.00;;
48285;SDS011;34102;47.716;10.296;2023-08-31T08:47:50;2.58;;;1.02;;
48285;SDS011;34102;47.716;10.296;2023-08-31T08:50:16;1.58;;;0.90;;
48285;SDS011;34102;47.716;10.296;2023-08-31T08:52:42;2.40;;;1.10;;
48285;SDS011;34102;47.716;10.296;2023-08-31T08:55:09;2.30;;;0.70;;
48285;SDS011;34102;47.716;10.296;2023-08-31T08:57:36;1.73;;;0.82;;
48285;SDS011;34102;47.716;10.296;2023-08-31T09:00:01;4.90;;;1.10;;
48285;SDS011;34102;47.716;10.296;2023-08-31T09:02:31;2.30;;;0.85;;
48285;SDS011;34102;47.716;10.296;2023-08-31T09:04:56;1.90;;;0.90;;
48285;SDS011;34102;47.716;10.296;2023-08-31T09:07:22;2.10;;;0.85;;
48285;SDS011;34102;47.716;10.296;2023-08-31T09:09:52;3.00;;;1.33;;
48285;SDS011;34102;47.716;10.296;2023-08-31T09:12:18;1.45;;;1.00;;
48285;SDS011;34102;47.716;10.296;2023-08-31T09:14:43;1.30;;;0.57;;
48285;SDS011;34102;47.716;10.296;2023-08-31T09:17:09;3.20;;;1.00;;
48285;SDS011;34102;47.716;10.296;2023-08-31T09:19:37;1.60;;;0.75;;
48285;SDS011;34102;47.716;10.296;2023-08-31T09:22:02;2.17;;;0.68;;
48285;SDS011;34102;47.716;10.296;2023-08-31T09:24:28;2.65;;;0.90;;
48285;SDS011;34102;47.716;10.296;2023-08-31T09:26:56;2.88;;;1.02;;
48285;SDS011;34102;47.716;10.296;2023-08-31T09:29:24;2.00;;;0.80;;
48285;SDS011;34102;47.716;10.296;2023-08-31T09:31:50;3.63;;;1.20;;
48285;SDS011;34102;47.716;10.296;2023-08-31T09:34:17;2.08;;;0.85;;
48285;SDS011;34102;47.716;10.296;2023-08-31T09:36:43;2.83;;;1.27;;
48285;SDS011;34102;47.716;10.296;2023-08-31T09:39:09;2.63;;;0.90;;
48285;SDS011;34102;47.716;10.296;2023-08-31T09:41:54;3.03;;;1.15;;
48285;SDS011;34102;47.716;10.296;2023-08-31T09:44:23;3.00;;;1.17;;
48285;SDS011;34102;47.716;10.296;2023-08-31T09:46:49;1.35;;;0.90;;
48285;SDS011;34102;47.716;10.296;2023-08-31T09:49:16;1.73;;;0.80;;
48285;SDS011;34102;47.716;10.296;2023-08-31T09:51:46;3.33;;;1.10;;
48285;SDS011;34102;47.716;10.296;2023-08-31T09:54:13;2.10;;;1.00;;
48285;SDS011;34102;47.716;10.296;2023-08-31T09:56:38;2.33;;;0.98;;
48285;SDS011;34102;47.716;10.296;2023-08-31T09:59:05;1.67;;;0.93;;
48285;SDS011;34102;47.716;10.296;2023-08-31T10:01:31;3.33;;;0.90;;
48285;SDS011;34102;47.716;10.296;2023-08-31T10:03:56;5.25;;;1.08;;
48285;SDS011;34102;47.716;10.296;2023-08-31T10:06:29;2.67;;;0.98;;
48285;SDS011;34102;47.716;10.296;2023-08-31T10:08:57;3.85;;;1.23;;
48285;SDS011;34102;47.716;10.296;2023-08-31T10:11:26;2.65;;;0.93;;
48285;SDS011;34102;47.716;10.296;2023-08-31T10:13:52;3.45;;;1.13;;
48285;SDS011;34102;47.716;10.296;2023-08-31T10:16:19;1.65;;;1.02;;
48285;SDS011;34102;47.716;10.296;2023-08-31T10:18:44;2.88;;;1.10;;
48285;SDS011;34102;47.716;10.296;2023-08-31T10:21:10;4.03;;;1.10;;
48285;SDS011;34102;47.716;10.296;2023-08-31T10:23:35;2.45;;;1.00;;
48285;SDS011;34102;47.716;10.296;2023-08-31T10:26:01;2.38;;;1.10;;
48285;SDS011;34102;47.716;10.296;2023-08-31T10:28:30;2.63;;;0.88;;
48285;SDS011;34102;47.716;10.296;2023-08-31T10:31:07;2.50;;;1.38;;
48285;SDS011;34102;47.716;10.296;2023-08-31T10:33:40;2.40;;;1.08;;
48285;SDS011;34102;47.716;10.296;2023-08-31T10:36:14;3.13;;;1.27;;
48285;SDS011;34102;47.716;10.296;2023-08-31T10:38:41;2.30;;;1.15;;
48285;SDS011;34102;47.716;10.296;2023-08-31T10:46:45;3.03;;;1.20;;
48285;SDS011;34102;47.716;10.296;2023-08-31T10:51:40;2.63;;;1.00;;
48285;SDS011;34102;47.716;10.296;2023-08-31T10:56:53;2.88;;;1.27;;
48285;SDS011;34102;47.716;10.296;2023-08-31T10:59:21;3.30;;;1.35;;
48285;SDS011;34102;47.716;10.296;2023-08-31T11:04:26;5.18;;;1.30;;
48285;SDS011;34102;47.716;10.296;2023-08-31T11:09:36;2.17;;;0.93;;
48285;SDS011;34102;47.716;10.296;2023-08-31T11:12:02;1.80;;;1.00;;
48285;SDS011;34102;47.716;10.296;2023-08-31T11:14:28;4.22;;;1.63;;
48285;SDS011;34102;47.716;10.296;2023-08-31T11:16:54;2.45;;;1.00;;
48285;SDS011;34102;47.716;10.296;2023-08-31T11:19:20;5.07;;;1.58;;
48285;SDS011;34102;47.716;10.296;2023-08-31T11:21:45;2.72;;;0.95;;
48285;SDS011;34102;47.716;10.296;2023-08-31T11:24:10;3.40;;;0.88;;
48285;SDS011;34102;47.716;10.296;2023-08-31T11:26:44;2.78;;;1.00;;
48285;SDS011;34102;47.716;10.296;2023-08-31T11:29:12;4.68;;;1.17;;
48285;SDS011;34102;47.716;10.296;2023-08-31T11:31:48;3.28;;;1.50;;
48285;SDS011;34102;47.716;10.296;2023-08-31T11:34:14;3.75;;;1.15;;
48285;SDS011;34102;47.716;10.296;2023-08-31T11:36:41;4.00;;;1.20;;
48285;SDS011;34102;47.716;10.296;2023-08-31T11:39:08;3.42;;;1.02;;
48285;SDS011;34102;47.716;10.296;2023-08-31T11:41:34;9.70;;;5.00;;
48285;SDS011;34102;47.716;10.296;2023-08-31T11:44:02;3.05;;;1.13;;
48285;SDS011;34102;47.716;10.296;2023-08-31T11:46:31;3.78;;;1.02;;
48285;SDS011;34102;47.716;10.296;2023-08-31T11:49:00;3.42;;;1.40;;
48285;SDS011;34102;47.716;10.296;2023-08-31T11:51:32;4.38;;;0.90;;
48285;SDS011;34102;47.716;10.296;2023-08-31T11:54:01;2.00;;;0.90;;
48285;SDS011;34102;47.716;10.296;2023-08-31T11:56:49;2.60;;;1.17;;
48285;SDS011;34102;47.716;10.296;2023-08-31T11:59:16;3.03;;;1.20;;
48285;SDS011;34102;47.716;10.296;2023-08-31T12:01:47;2.90;;;1.00;;
48285;SDS011;34102;47.716;10.296;2023-08-31T12:04:16;3.92;;;0.90;;
48285;SDS011;34102;47.716;10.296;2023-08-31T12:06:42;4.68;;;1.40;;
48285;SDS011;34102;47.716;10.296;2023-08-31T12:09:13;3.05;;;1.10;;
48285;SDS011;34102;47.716;10.296;2023-08-31T12:11:40;2.10;;;1.00;;
48285;SDS011;34102;47.716;10.296;2023-08-31T12:17:07;3.38;;;1.42;;
48285;SDS011;34102;47.716;10.296;2023-08-31T12:19:33;3.70;;;1.42;;
48285;SDS011;34102;47.716;10.296;2023-08-31T12:21:59;1.63;;;0.80;;
48285;SDS011;34102;47.716;10.296;2023-08-31T12:24:25;3.10;;;1.20;;
48285;SDS011;34102;47.716;10.296;2023-08-31T12:26:51;2.60;;;0.93;;
48285;SDS011;34102;47.716;10.296;2023-08-31T12:29:19;3.00;;;0.93;;
48285;SDS011;34102;47.716;10.296;2023-08-31T12:31:45;3.85;;;1.00;;
48285;SDS011;34102;47.716;10.296;2023-08-31T12:34:10;2.67;;;1.27;;
48285;SDS011;34102;47.716;10.296;2023-08-31T12:36:36;4.18;;;1.10;;
48285;SDS011;34102;47.716;10.296;2023-08-31T12:39:08;3.42;;;1.10;;
48285;SDS011;34102;47.716;10.296;2023-08-31T12:41:38;4.30;;;1.25;;
48285;SDS011;34102;47.716;10.296;2023-08-31T12:44:04;4.75;;;1.38;;
48285;SDS011;34102;47.716;10.296;2023-08-31T12:46:30;2.38;;;0.90;;
48285;SDS011;34102;47.716;10.296;2023-08-31T12:49:01;3.50;;;1.02;;
48285;SDS011;34102;47.716;10.296;2023-08-31T12:51:32;4.00;;;1.30;;
48285;SDS011;34102;47.716;10.296;2023-08-31T12:53:59;4.68;;;0.90;;
48285;SDS011;34102;47.716;10.296;2023-08-31T12:56:28;2.03;;;0.98;;
48285;SDS011;34102;47.716;10.296;2023-08-31T12:58:57;5.50;;;1.35;;
48285;SDS011;34102;47.716;10.296;2023-08-31T13:01:23;3.35;;;1.30;;
48285;SDS011;34102;47.716;10.296;2023-08-31T13:03:50;3.03;;;1.27;;
48285;SDS011;34102;47.716;10.296;2023-08-31T13:06:17;3.33;;;1.10;;
48285;SDS011;34102;47.716;10.296;2023-08-31T13:08:44;2.42;;;1.08;;
48285;SDS011;34102;47.716;10.296;2023-08-31T13:11:14;5.05;;;1.33;;
48285;SDS011;34102;47.716;10.296;2023-08-31T13:13:40;5.50;;;1.00;;
48285;SDS011;34102;47.716;10.296;2023-08-31T13:16:05;2.35;;;1.10;;
48285;SDS011;34102;47.716;10.296;2023-08-31T13:18:32;4.47;;;1.63;;
48285;SDS011;34102;47.716;10.296;2023-08-31T13:21:03;2.83;;;1.10;;
48285;SDS011;34102;47.716;10.296;2023-08-31T13:23:28;5.45;;;1.42;;
48285;SDS011;34102;47.716;10.296;2023-08-31T13:25:53;2.38;;;0.98;;
48285;SDS011;34102;47.716;10.296;2023-08-31T13:28:21;2.50;;;1.30;;
48285;SDS011;34102;47.716;10.296;2023-08-31T13:30:46;4.00;;;1.38;;
48285;SDS011;34102;47.716;10.296;2023-08-31T13:33:12;2.40;;;0.90;;
48285;SDS011;34102;47.716;10.296;2023-08-31T13:35:39;4.65;;;1.17;;
48285;SDS011;34102;47.716;10.296;2023-08-31T13:38:04;2.95;;;1.10;;
48285;SDS011;34102;47.716;10.296;2023-08-31T13:40:33;2.70;;;1.05;;
48285;SDS011;34102;47.716;10.296;2023-08-31T13:43:00;3.83;;;1.25;;
48285;SDS011;34102;47.716;10.296;2023-08-31T13:45:28;2.80;;;1.20;;
48285;SDS011;34102;47.716;10.296;2023-08-31T13:47:56;3.40;;;1.08;;
48285;SDS011;34102;47.716;10.296;2023-08-31T13:50:21;3.53;;;1.52;;
48285;SDS011;34102;47.716;10.296;2023-08-31T13:52:48;3.58;;;1.10;;
48285;SDS011;34102;47.716;10.296;2023-08-31T13:55:14;2.25;;;1.00;;
48285;SDS011;34102;47.716;10.296;2023-08-31T13:57:41;2.20;;;1.10;;
48285;SDS011;34102;47.716;10.296;2023-08-31T14:00:07;4.40;;;2.03;;
48285;SDS011;34102;47.716;10.296;2023-08-31T14:02:38;3.33;;;1.10;;
48285;SDS011;34102;47.716;10.296;2023-08-31T14:05:04;3.47;;;1.20;;
48285;SDS011;34102;47.716;10.296;2023-08-31T14:07:34;7.90;;;1.45;;
48285;SDS011;34102;47.716;10.296;2023-08-31T14:09:59;3.53;;;1.30;;
48285;SDS011;34102;47.716;10.296;2023-08-31T14:12:25;5.15;;;1.73;;
48285;SDS011;34102;47.716;10.296;2023-08-31T14:14:52;3.47;;;1.25;;
48285;SDS011;34102;47.716;10.296;2023-08-31T14:17:22;4.45;;;1.20;;
48285;SDS011;34102;47.716;10.296;2023-08-31T14:19:47;4.18;;;1.27;;
48285;SDS011;34102;47.716;10.296;2023-08-31T14:22:13;3.60;;;0.82;;
48285;SDS011;34102;47.716;10.296;2023-08-31T14:24:39;3.22;;;1.05;;
48285;SDS011;34102;47.716;10.296;2023-08-31T14:27:09;2.47;;;1.02;;
48285;SDS011;34102;47.716;10.296;2023-08-31T14:29:36;3.80;;;1.35;;
48285;SDS011;34102;47.716;10.296;2023-08-31T14:32:02;3.15;;;1.05;;
48285;SDS011;34102;47.716;10.296;2023-08-31T14:34:28;3.22;;;1.15;;
48285;SDS011;34102;47.716;10.296;2023-08-31T14:36:56;3.58;;;1.13;;
48285;SDS011;34102;47.716;10.296;2023-08-31T14:39:24;3.88;;;1.20;;
48285;SDS011;34102;47.716;10.296;2023-08-31T14:41:55;3.05;;;1.33;;
48285;SDS011;34102;47.716;10.296;2023-08-31T14:44:22;4.15;;;1.40;;
48285;SDS011;34102;47.716;10.296;2023-08-31T14:46:51;4.22;;;1.63;;
48285;SDS011;34102;47.716;10.296;2023-08-31T14:49:16;3.45;;;0.93;;
48285;SDS011;34102;47.716;10.296;2023-08-31T14:51:48;5.30;;;2.30;;
48285;SDS011;34102;47.716;10.296;2023-08-31T14:54:14;4.60;;;1.00;;
48285;SDS011;34102;47.716;10.296;2023-08-31T14:56:40;2.08;;;0.80;;
48285;SDS011;34102;47.716;10.296;2023-08-31T14:59:05;5.45;;;1.05;;
48285;SDS011;34102;47.716;10.296;2023-08-31T15:01:32;2.40;;;1.20;;
48285;SDS011;34102;47.716;10.296;2023-08-31T15:04:07;3.72;;;1.35;;
48285;SDS011;34102;47.716;10.296;2023-08-31T15:06:33;2.63;;;0.65;;
48285;SDS011;34102;47.716;10.296;2023-08-31T15:08:58;3.58;;;0.90;;
48285;SDS011;34102;47.716;10.296;2023-08-31T15:11:27;3.25;;;1.30;;
48285;SDS011;34102;47.716;10.296;2023-08-31T15:13:54;4.90;;;1.88;;
48285;SDS011;34102;47.716;10.296;2023-08-31T15:16:19;2.28;;;0.77;;
48285;SDS011;34102;47.716;10.296;2023-08-31T15:18:45;5.53;;;1.27;;
48285;SDS011;34102;47.716;10.296;2023-08-31T15:21:12;5.80;;;1.60;;
48285;SDS011;34102;47.716;10.296;2023-08-31T15:23:43;5.38;;;1.10;;
48285;SDS011;34102;47.716;10.296;2023-08-31T15:26:14;3.70;;;1.10;;
48285;SDS011;34102;47.716;10.296;2023-08-31T15:28:44;2.45;;;1.00;;
48285;SDS011;34102;47.716;10.296;2023-08-31T15:31:12;3.30;;;1.23;;
48285;SDS011;34102;47.716;10.296;2023-08-31T15:33:38;2.05;;;0.90;;
48285;SDS011;34102;47.716;10.296;2023-08-31T15:36:08;2.35;;;0.90;;
48285;SDS011;34102;47.716;10.296;2023-08-31T15:38:37;3.58;;;1.45;;
48285;SDS011;34102;47.716;10.296;2023-08-31T15:41:05;2.15;;;1.00;;
48285;SDS011;34102;47.716;10.296;2023-08-31T15:43:33;3.85;;;1.65;;
48285;SDS011;34102;47.716;10.296;2023-08-31T15:46:00;2.63;;;1.10;;
48285;SDS011;34102;47.716;10.296;2023-08-31T15:48:27;2.88;;;1.30;;
48285;SDS011;34102;47.716;10.296;2023-08-31T15:50:54;3.05;;;1.00;;
48285;SDS011;34102;47.716;10.296;2023-08-31T15:53:19;3.70;;;1.50;;
48285;SDS011;34102;47.716;10.296;2023-08-31T15:55:48;4.57;;;1.38;;
48285;SDS011;34102;47.716;10.296;2023-08-31T15:58:15;3.50;;;1.30;;
48285;SDS011;34102;47.716;10.296;2023-08-31T16:00:40;3.45;;;1.55;;
48285;SDS011;34102;47.716;10.296;2023-08-31T16:03:06;5.80;;;1.77;;
48285;SDS011;34102;47.716;10.296;2023-08-31T16:05:31;3.30;;;1.20;;
48285;SDS011;34102;47.716;10.296;2023-08-31T16:07:59;5.38;;;1.30;;
48285;SDS011;34102;47.716;10.296;2023-08-31T16:10:26;5.13;;;1.20;;
48285;SDS011;34102;47.716;10.296;2023-08-31T16:12:51;5.15;;;1.55;;
48285;SDS011;34102;47.716;10.296;2023-08-31T16:15:16;3.05;;;1.20;;
48285;SDS011;34102;47.716;10.296;2023-08-31T16:17:42;7.00;;;1.60;;
48285;SDS011;34102;47.716;10.296;2023-08-31T16:20:11;2.30;;;1.25;;
48285;SDS011;34102;47.716;10.296;2023-08-31T16:22:37;2.97;;;1.10;;
48285;SDS011;34102;47.716;10.296;2023-08-31T16:25:03;4.97;;;1.20;;
48285;SDS011;34102;47.716;10.296;2023-08-31T16:27:30;3.20;;;1.75;;
48285;SDS011;34102;47.716;10.296;2023-08-31T16:29:58;3.33;;;1.20;;
48285;SDS011;34102;47.716;10.296;2023-08-31T16:32:26;3.45;;;1.55;;
48285;SDS011;34102;47.716;10.296;2023-08-31T16:34:51;2.22;;;1.35;;
48285;SDS011;34102;47.716;10.296;2023-08-31T16:37:19;3.30;;;1.50;;
48285;SDS011;34102;47.716;10.296;2023-08-31T16:39:45;5.32;;;1.27;;
48285;SDS011;34102;47.716;10.296;2023-08-31T16:42:12;4.78;;;1.45;;
48285;SDS011;34102;47.716;10.296;2023-08-31T16:44:41;3.45;;;1.00;;
48285;SDS011;34102;47.716;10.296;2023-08-31T16:47:08;3.30;;;1.08;;
48285;SDS011;34102;47.716;10.296;2023-08-31T16:49:36;2.47;;;1.15;;
48285;SDS011;34102;47.716;10.296;2023-08-31T16:52:03;3.83;;;1.10;;
48285;SDS011;34102;47.716;10.296;2023-08-31T16:54:29;4.97;;;1.25;;
48285;SDS011;34102;47.716;10.296;2023-08-31T16:56:55;3.15;;;1.30;;
48285;SDS011;34102;47.716;10.296;2023-08-31T16:59:21;4.90;;;1.38;;
48285;SDS011;34102;47.716;10.296;2023-08-31T17:01:47;2.42;;;1.42;;
48285;SDS011;34102;47.716;10.296;2023-08-31T17:04:13;2.17;;;0.93;;
48285;SDS011;34102;47.716;10.296;2023-08-31T17:06:38;4.15;;;1.48;;
48285;SDS011;34102;47.716;10.296;2023-08-31T17:09:04;3.47;;;1.30;;
48285;SDS011;34102;47.716;10.296;2023-08-31T17:11:32;3.45;;;1.70;;
48285;SDS011;34102;47.716;10.296;2023-08-31T17:13:57;3.30;;;1.60;;
48285;SDS011;34102;47.716;10.296;2023-08-31T17:16:24;4.85;;;1.67;;
48285;SDS011;34102;47.716;10.296;2023-08-31T17:18:50;3.15;;;1.70;;
48285;SDS011;34102;47.716;10.296;2023-08-31T17:21:18;5.07;;;1.60;;
48285;SDS011;34102;47.716;10.296;2023-08-31T17:23:47;3.22;;;1.52;;
48285;SDS011;34102;47.716;10.296;2023-08-31T17:26:22;5.93;;;1.75;;
48285;SDS011;34102;47.716;10.296;2023-08-31T17:28:48;2.60;;;1.77;;
48285;SDS011;34102;47.716;10.296;2023-08-31T17:31:14;6.35;;;1.95;;
48285;SDS011;34102;47.716;10.296;2023-08-31T17:33:39;3.75;;;1.65;;
48285;SDS011;34102;47.716;10.296;2023-08-31T17:36:08;6.97;;;1.83;;
48285;SDS011;34102;47.716;10.296;2023-08-31T17:38:35;2.88;;;1.80;;
48285;SDS011;34102;47.716;10.296;2023-08-31T17:41:09;3.78;;;2.67;;
48285;SDS011;34102;47.716;10.296;2023-08-31T17:43:34;4.97;;;1.90;;
48285;SDS011;34102;47.716;10.296;2023-08-31T17:46:00;7.00;;;3.78;;
48285;SDS011;34102;47.716;10.296;2023-08-31T17:48:27;7.30;;;2.80;;
48285;SDS011;34102;47.716;10.296;2023-08-31T17:50:53;7.13;;;3.85;;
48285;SDS011;34102;47.716;10.296;2023-08-31T17:53:18;3.60;;;1.75;;
48285;SDS011;34102;47.716;10.296;2023-08-31T17:55:45;7.50;;;1.60;;
48285;SDS011;34102;47.716;10.296;2023-08-31T17:58:12;4.28;;;1.77;;
48285;SDS011;34102;47.716;10.296;2023-08-31T18:00:37;9.02;;;3.78;;
48285;SDS011;34102;47.716;10.296;2023-08-31T18:03:05;5.18;;;2.42;;
48285;SDS011;34102;47.716;10.296;2023-08-31T18:05:31;6.78;;;2.47;;
48285;SDS011;34102;47.716;10.296;2023-08-31T18:07:56;4.88;;;1.73;;
48285;SDS011;34102;47.716;10.296;2023-08-31T18:10:21;7.65;;;4.88;;
48285;SDS011;34102;47.716;10.296;2023-08-31T18:12:50;10.18;;;5.45;;
48285;SDS011;34102;47.716;10.296;2023-08-31T18:15:17;5.63;;;2.53;;
48285;SDS011;34102;47.716;10.296;2023-08-31T18:17:42;6.30;;;2.88;;
48285;SDS011;34102;47.716;10.296;2023-08-31T18:20:08;19.20;;;10.70;;
48285;SDS011;34102;47.716;10.296;2023-08-31T18:22:33;10.85;;;5.50;;
48285;SDS011;34102;47.716;10.296;2023-08-31T18:24:59;4.97;;;2.60;;
48285;SDS011;34102;47.716;10.296;2023-08-31T18:27:29;4.30;;;2.35;;
48285;SDS011;34102;47.716;10.296;2023-08-31T18:30:04;2.95;;;1.70;;
48285;SDS011;34102;47.716;10.296;2023-08-31T18:32:30;4.93;;;2.00;;
48285;SDS011;34102;47.716;10.296;2023-08-31T18:34:56;3.35;;;2.00;;
48285;SDS011;34102;47.716;10.296;2023-08-31T18:37:22;5.00;;;1.95;;
48285;SDS011;34102;47.716;10.296;2023-08-31T18:39:48;4.40;;;2.22;;
48285;SDS011;34102;47.716;10.296;2023-08-31T18:42:14;24.30;;;14.73;;
48285;SDS011;34102;47.716;10.296;2023-08-31T18:44:40;26.92;;;17.25;;
48285;SDS011;34102;47.716;10.296;2023-08-31T18:47:06;9.18;;;5.57;;
48285;SDS011;34102;47.716;10.296;2023-08-31T18:49:32;6.35;;;4.43;;
48285;SDS011;34102;47.716;10.296;2023-08-31T18:51:58;5.43;;;3.70;;
48285;SDS011;34102;47.716;10.296;2023-08-31T18:54:27;8.23;;;3.25;;
48285;SDS011;34102;47.716;10.296;2023-08-31T18:56:55;4.57;;;2.00;;
48285;SDS011;34102;47.716;10.296;2023-08-31T18:59:21;5.32;;;1.90;;
48285;SDS011;34102;47.716;10.296;2023-08-31T19:01:47;9.73;;;4.13;;
48285;SDS011;34102;47.716;10.296;2023-08-31T19:04:13;7.35;;;4.45;;
48285;SDS011;34102;47.716;10.296;2023-08-31T19:06:39;6.07;;;4.40;;
48285;SDS011;34102;47.716;10.296;2023-08-31T19:09:04;5.80;;;3.58;;
48285;SDS011;34102;47.716;10.296;2023-08-31T19:11:30;7.07;;;3.42;;
48285;SDS011;34102;47.716;10.296;2023-08-31T19:13:59;4.80;;;2.40;;
48285;SDS011;34102;47.716;10.296;2023-08-31T19:16:24;8.25;;;2.83;;
48285;SDS011;34102;47.716;10.296;2023-08-31T19:18:49;24.60;;;3.20;;
48285;SDS011;34102;47.716;10.296;2023-08-31T19:21:15;3.88;;;2.47;;
48285;SDS011;34102;47.716;10.296;2023-08-31T19:23:41;4.57;;;2.50;;
48285;SDS011;34102;47.716;10.296;2023-08-31T19:26:07;4.00;;;2.45;;
48285;SDS011;34102;47.716;10.296;2023-08-31T19:28:36;6.30;;;2.55;;
48285;SDS011;34102;47.716;10.296;2023-08-31T19:31:02;5.57;;;2.83;;
48285;SDS011;34102;47.716;10.296;2023-08-31T19:33:28;4.90;;;2.58;;
48285;SDS011;34102;47.716;10.296;2023-08-31T19:35:56;7.72;;;5.20;;
48285;SDS011;34102;47.716;10.296;2023-08-31T19:38:22;5.05;;;3.38;;
48285;SDS011;34102;47.716;10.296;2023-08-31T19:40:48;5.07;;;2.90;;
48285;SDS011;34102;47.716;10.296;2023-08-31T19:43:14;6.20;;;3.38;;
48285;SDS011;34102;47.716;10.296;2023-08-31T19:45:42;11.98;;;8.10;;
48285;SDS011;34102;47.716;10.296;2023-08-31T19:48:09;9.95;;;6.32;;
48285;SDS011;34102;47.716;10.296;2023-08-31T19:50:37;9.10;;;4.30;;
48285;SDS011;34102;47.716;10.296;2023-08-31T19:53:05;4.45;;;3.05;;
48285;SDS011;34102;47.716;10.296;2023-08-31T19:55:33;7.22;;;3.00;;
48285;SDS011;34102;47.716;10.296;2023-08-31T19:58:00;27.60;;;20.20;;
48285;SDS011;34102;47.716;10.296;2023-08-31T20:00:26;16.58;;;10.15;;
48285;SDS011;34102;47.716;10.296;2023-08-31T20:02:52;6.70;;;4.07;;
48285;SDS011;34102;47.716;10.296;2023-08-31T20:05:18;5.03;;;3.45;;